sensor_id;sensor_type;location;lat;lon;timestamp;temperature;humidity
25568;DHT22;13455;51.480;7.594;2023-01-31T00:08:37;5.10;99.90
25568;DHT22;13455;51.480;7.594;2023-01-31T00:11:03;5.00;99.90
25568;DHT22;13455;51.480;7.594;2023-01-31T00:57:19;4.60;99.90
25568;DHT22;13455;51.480;7.594;2023-01-31T00:59:44;4.70;99.90
25568;DHT22;13455;51.480;7.594;2023-01-31T01:02:10;4.80;99.90
25568;DHT22;13455;51.480;7.594;2023-01-31T01:04:35;4.50;99.90
25568;DHT22;13455;51.480;7.594;2023-01-31T01:07:01;4.60;99.90
25568;DHT22;13455;51.480;7.594;2023-01-31T01:09:27;4.60;99.90
25568;DHT22;13455;51.480;7.594;2023-01-31T01:11:52;4.60;99.90
25568;DHT22;13455;51.480;7.594;2023-01-31T01:16:44;4.60;99.90
25568;DHT22;13455;51.480;7.594;2023-01-31T01:19:16;4.80;99.90
25568;DHT22;13455;51.480;7.594;2023-01-31T01:21:43;4.60;99.90
25568;DHT22;13455;51.480;7.594;2023-01-31T01:24:14;4.70;99.90
25568;DHT22;13455;51.480;7.594;2023-01-31T01:26:40;4.70;99.90
25568;DHT22;13455;51.480;7.594;2023-01-31T01:29:06;4.60;99.90
25568;DHT22;13455;51.480;7.594;2023-01-31T01:31:32;4.90;99.90
25568;DHT22;13455;51.480;7.594;2023-01-31T01:36:25;4.60;99.90
25568;DHT22;13455;51.480;7.594;2023-01-31T01:38:51;4.60;99.90
25568;DHT22;13455;51.480;7.594;2023-01-31T01:41:18;4.70;99.90
25568;DHT22;13455;51.480;7.594;2023-01-31T01:46:35;4.70;99.90
25568;DHT22;13455;51.480;7.594;2023-01-31T01:49:22;4.70;99.90
25568;DHT22;13455;51.480;7.594;2023-01-31T01:51:50;4.70;99.90
25568;DHT22;13455;51.480;7.594;2023-01-31T01:54:23;5.00;99.90
25568;DHT22;13455;51.480;7.594;2023-01-31T01:56:54;4.70;99.90
25568;DHT22;13455;51.480;7.594;2023-01-31T01:59:26;4.70;99.90
25568;DHT22;13455;51.480;7.594;2023-01-31T02:01:54;5.10;99.90
25568;DHT22;13455;51.480;7.594;2023-01-31T02:04:24;4.70;99.90
25568;DHT22;13455;51.480;7.594;2023-01-31T02:06:52;4.60;99.90
25568;DHT22;13455;51.480;7.594;2023-01-31T02:09:29;4.60;99.90
25568;DHT22;13455;51.480;7.594;2023-01-31T02:11:57;4.60;99.90
25568;DHT22;13455;51.480;7.594;2023-01-31T02:14:23;4.50;99.90
25568;DHT22;13455;51.480;7.594;2023-01-31T02:16:49;4.60;99.90
25568;DHT22;13455;51.480;7.594;2023-01-31T02:19:32;4.50;99.90
25568;DHT22;13455;51.480;7.594;2023-01-31T02:35:36;4.60;99.90
25568;DHT22;13455;51.480;7.594;2023-01-31T02:40:53;4.60;99.90
25568;DHT22;13455;51.480;7.594;2023-01-31T02:43:43;4.60;99.90
25568;DHT22;13455;51.480;7.594;2023-01-31T02:49:50;4.60;99.90
25568;DHT22;13455;51.480;7.594;2023-01-31T02:52:24;4.60;99.90
25568;DHT22;13455;51.480;7.594;2023-01-31T02:57:54;4.60;99.90
25568;DHT22;13455;51.480;7.594;2023-01-31T03:00:22;4.60;99.90
25568;DHT22;13455;51.480;7.594;2023-01-31T03:02:48;4.50;99.90
25568;DHT22;13455;51.480;7.594;2023-01-31T03:05:16;4.60;99.90
25568;DHT22;13455;51.480;7.594;2023-01-31T03:07:44;4.60;99.90
25568;DHT22;13455;51.480;7.594;2023-01-31T03:16:05;4.60;99.90
25568;DHT22;13455;51.480;7.594;2023-01-31T03:19:13;4.50;99.90
25568;DHT22;13455;51.480;7.594;2023-01-31T03:21:54;4.50;99.90
25568;DHT22;13455;51.480;7.594;2023-01-31T03:24:21;4.50;99.90
25568;DHT22;13455;51.480;7.594;2023-01-31T03:26:52;4.50;99.90
25568;DHT22;13455;51.480;7.594;2023-01-31T03:29:19;4.50;99.90
25568;DHT22;13455;51.480;7.594;2023-01-31T03:32:07;5.00;99.90
25568;DHT22;13455;51.480;7.594;2023-01-31T03:34:36;4.50;99.90
25568;DHT22;13455;51.480;7.594;2023-01-31T03:37:07;4.50;99.90
25568;DHT22;13455;51.480;7.594;2023-01-31T03:39:55;4.50;99.90
25568;DHT22;13455;51.480;7.594;2023-01-31T03:42:30;4.50;99.90
25568;DHT22;13455;51.480;7.594;2023-01-31T03:45:05;4.60;99.90
25568;DHT22;13455;51.480;7.594;2023-01-31T03:47:39;4.50;99.90
25568;DHT22;13455;51.480;7.594;2023-01-31T03:50:12;4.50;99.90
25568;DHT22;13455;51.480;7.594;2023-01-31T03:52:43;4.50;99.90
25568;DHT22;13455;51.480;7.594;2023-01-31T03:55:17;4.50;99.90
25568;DHT22;13455;51.480;7.594;2023-01-31T03:57:46;4.50;99.90
25568;DHT22;13455;51.480;7.594;2023-01-31T04:00:14;4.50;99.90
25568;DHT22;13455;51.480;7.594;2023-01-31T04:02:41;4.50;99.90
25568;DHT22;13455;51.480;7.594;2023-01-31T04:05:11;4.50;99.90
25568;DHT22;13455;51.480;7.594;2023-01-31T04:07:39;4.40;99.90
25568;DHT22;13455;51.480;7.594;2023-01-31T04:10:11;4.40;99.90
25568;DHT22;13455;51.480;7.594;2023-01-31T04:12:37;4.40;99.90
25568;DHT22;13455;51.480;7.594;2023-01-31T04:15:04;4.40;99.90
25568;DHT22;13455;51.480;7.594;2023-01-31T04:17:30;4.40;99.90
25568;DHT22;13455;51.480;7.594;2023-01-31T04:19:56;4.40;99.90
25568;DHT22;13455;51.480;7.594;2023-01-31T04:22:21;4.40;99.90
25568;DHT22;13455;51.480;7.594;2023-01-31T04:24:47;4.30;99.90
25568;DHT22;13455;51.480;7.594;2023-01-31T04:27:13;4.40;99.90
25568;DHT22;13455;51.480;7.594;2023-01-31T04:29:38;4.30;99.90
25568;DHT22;13455;51.480;7.594;2023-01-31T04:32:04;4.30;99.90
25568;DHT22;13455;51.480;7.594;2023-01-31T04:34:30;4.30;99.90
25568;DHT22;13455;51.480;7.594;2023-01-31T04:36:55;4.40;99.90
25568;DHT22;13455;51.480;7.594;2023-01-31T04:39:21;3.50;99.90
25568;DHT22;13455;51.480;7.594;2023-01-31T04:44:13;4.30;99.90
25568;DHT22;13455;51.480;7.594;2023-01-31T04:46:38;4.30;99.90
25568;DHT22;13455;51.480;7.594;2023-01-31T04:49:04;4.30;99.90
25568;DHT22;13455;51.480;7.594;2023-01-31T04:51:30;4.20;99.90
25568;DHT22;13455;51.480;7.594;2023-01-31T04:53:55;4.30;99.90
25568;DHT22;13455;51.480;7.594;2023-01-31T04:56:21;4.30;99.90
25568;DHT22;13455;51.480;7.594;2023-01-31T04:58:47;4.10;99.90
25568;DHT22;13455;51.480;7.594;2023-01-31T05:01:13;4.20;99.90
25568;DHT22;13455;51.480;7.594;2023-01-31T05:03:39;4.20;99.90
25568;DHT22;13455;51.480;7.594;2023-01-31T05:06:05;4.20;99.90
25568;DHT22;13455;51.480;7.594;2023-01-31T05:08:30;4.20;99.90
25568;DHT22;13455;51.480;7.594;2023-01-31T05:11:00;4.20;99.90
25568;DHT22;13455;51.480;7.594;2023-01-31T05:13:26;4.20;99.90
25568;DHT22;13455;51.480;7.594;2023-01-31T05:15:54;4.10;99.90
25568;DHT22;13455;51.480;7.594;2023-01-31T05:18:25;4.10;99.90
25568;DHT22;13455;51.480;7.594;2023-01-31T05:20:51;4.10;99.90
25568;DHT22;13455;51.480;7.594;2023-01-31T05:23:17;4.10;99.90
25568;DHT22;13455;51.480;7.594;2023-01-31T05:25:44;4.00;99.90
25568;DHT22;13455;51.480;7.594;2023-01-31T05:28:10;4.00;99.90
25568;DHT22;13455;51.480;7.594;2023-01-31T05:30:36;3.90;99.90
25568;DHT22;13455;51.480;7.594;2023-01-31T05:33:02;4.00;99.90
25568;DHT22;13455;51.480;7.594;2023-01-31T05:37:54;4.00;99.90
25568;DHT22;13455;51.480;7.594;2023-01-31T05:40:20;4.00;99.90
25568;DHT22;13455;51.480;7.594;2023-01-31T05:42:53;3.80;99.90
25568;DHT22;13455;51.480;7.594;2023-01-31T05:45:19;4.00;99.90
25568;DHT22;13455;51.480;7.594;2023-01-31T05:47:46;3.90;99.90
25568;DHT22;13455;51.480;7.594;2023-01-31T05:50:11;3.90;99.90
25568;DHT22;13455;51.480;7.594;2023-01-31T05:52:37;4.00;99.90
25568;DHT22;13455;51.480;7.594;2023-01-31T05:55:03;4.00;99.90
25568;DHT22;13455;51.480;7.594;2023-01-31T05:57:29;4.00;99.90
25568;DHT22;13455;51.480;7.594;2023-01-31T05:59:54;4.00;99.90
25568;DHT22;13455;51.480;7.594;2023-01-31T06:02:20;4.90;99.90
25568;DHT22;13455;51.480;7.594;2023-01-31T06:04:46;4.00;99.90
25568;DHT22;13455;51.480;7.594;2023-01-31T06:07:11;4.10;99.90
25568;DHT22;13455;51.480;7.594;2023-01-31T06:09:37;4.10;99.90
25568;DHT22;13455;51.480;7.594;2023-01-31T06:12:05;4.40;99.90
25568;DHT22;13455;51.480;7.594;2023-01-31T06:14:31;4.00;99.90
25568;DHT22;13455;51.480;7.594;2023-01-31T06:16:57;4.50;99.90
25568;DHT22;13455;51.480;7.594;2023-01-31T06:19:22;4.40;99.90
25568;DHT22;13455;51.480;7.594;2023-01-31T06:21:50;4.20;99.90
25568;DHT22;13455;51.480;7.594;2023-01-31T06:24:16;4.50;99.90
25568;DHT22;13455;51.480;7.594;2023-01-31T06:26:42;4.30;99.90
25568;DHT22;13455;51.480;7.594;2023-01-31T06:29:08;4.50;99.90
25568;DHT22;13455;51.480;7.594;2023-01-31T06:31:34;4.20;99.90
25568;DHT22;13455;51.480;7.594;2023-01-31T06:34:01;4.40;99.90
25568;DHT22;13455;51.480;7.594;2023-01-31T06:36:30;4.40;99.90
25568;DHT22;13455;51.480;7.594;2023-01-31T06:38:55;4.70;99.90
25568;DHT22;13455;51.480;7.594;2023-01-31T06:41:21;4.40;99.90
25568;DHT22;13455;51.480;7.594;2023-01-31T06:43:47;4.40;99.90
25568;DHT22;13455;51.480;7.594;2023-01-31T06:46:13;4.40;99.90
25568;DHT22;13455;51.480;7.594;2023-01-31T06:48:39;4.80;99.90
25568;DHT22;13455;51.480;7.594;2023-01-31T06:51:04;4.80;99.90
25568;DHT22;13455;51.480;7.594;2023-01-31T06:56:00;4.50;99.90
25568;DHT22;13455;51.480;7.594;2023-01-31T10:08:39;5.50;99.90
25568;DHT22;13455;51.480;7.594;2023-01-31T10:11:11;5.50;99.90
25568;DHT22;13455;51.480;7.594;2023-01-31T10:13:50;5.50;99.90
25568;DHT22;13455;51.480;7.594;2023-01-31T10:16:38;5.60;99.90
25568;DHT22;13455;51.480;7.594;2023-01-31T10:19:11;5.50;99.90
25568;DHT22;13455;51.480;7.594;2023-01-31T10:21:49;5.80;99.90
25568;DHT22;13455;51.480;7.594;2023-01-31T10:24:26;5.50;99.90
25568;DHT22;13455;51.480;7.594;2023-01-31T10:26:59;5.60;99.90
25568;DHT22;13455;51.480;7.594;2023-01-31T10:29:36;5.60;99.90
25568;DHT22;13455;51.480;7.594;2023-01-31T10:32:10;5.60;99.90
25568;DHT22;13455;51.480;7.594;2023-01-31T10:34:52;5.60;99.90
25568;DHT22;13455;51.480;7.594;2023-01-31T10:37:42;5.60;99.90
25568;DHT22;13455;51.480;7.594;2023-01-31T10:42:47;5.80;99.90
25568;DHT22;13455;51.480;7.594;2023-01-31T10:45:24;5.60;99.90
25568;DHT22;13455;51.480;7.594;2023-01-31T10:48:00;5.70;99.90
25568;DHT22;13455;51.480;7.594;2023-01-31T10:56:33;6.20;99.90
25568;DHT22;13455;51.480;7.594;2023-01-31T10:59:04;5.60;99.90
25568;DHT22;13455;51.480;7.594;2023-01-31T11:03:56;5.70;99.90
25568;DHT22;13455;51.480;7.594;2023-01-31T11:24:00;6.00;99.90
25568;DHT22;13455;51.480;7.594;2023-01-31T11:26:38;5.80;99.90
25568;DHT22;13455;51.480;7.594;2023-01-31T11:29:15;5.70;99.90
25568;DHT22;13455;51.480;7.594;2023-01-31T11:39:27;6.00;99.90
25568;DHT22;13455;51.480;7.594;2023-01-31T11:41:53;5.80;99.90
25568;DHT22;13455;51.480;7.594;2023-01-31T11:44:21;5.90;99.90
25568;DHT22;13455;51.480;7.594;2023-01-31T11:49:20;5.80;99.90
25568;DHT22;13455;51.480;7.594;2023-01-31T11:51:47;5.80;99.90
25568;DHT22;13455;51.480;7.594;2023-01-31T11:54:23;5.90;99.90
25568;DHT22;13455;51.480;7.594;2023-01-31T11:56:50;5.90;99.90
25568;DHT22;13455;51.480;7.594;2023-01-31T11:59:19;5.90;99.90
25568;DHT22;13455;51.480;7.594;2023-01-31T12:01:51;6.00;99.90
25568;DHT22;13455;51.480;7.594;2023-01-31T12:04:25;5.90;99.90
25568;DHT22;13455;51.480;7.594;2023-01-31T12:07:01;6.00;99.90
25568;DHT22;13455;51.480;7.594;2023-01-31T12:09:29;6.00;99.90
25568;DHT22;13455;51.480;7.594;2023-01-31T12:12:00;6.00;99.90
25568;DHT22;13455;51.480;7.594;2023-01-31T12:14:37;6.00;99.90
25568;DHT22;13455;51.480;7.594;2023-01-31T12:17:04;6.00;99.90
25568;DHT22;13455;51.480;7.594;2023-01-31T12:22:29;6.10;99.90
25568;DHT22;13455;51.480;7.594;2023-01-31T12:52:38;6.20;99.90
25568;DHT22;13455;51.480;7.594;2023-01-31T12:55:38;6.10;99.90
25568;DHT22;13455;51.480;7.594;2023-01-31T13:01:21;6.20;99.90
25568;DHT22;13455;51.480;7.594;2023-01-31T13:06:43;6.20;99.90
25568;DHT22;13455;51.480;7.594;2023-01-31T13:09:25;6.20;99.90
25568;DHT22;13455;51.480;7.594;2023-01-31T13:12:14;6.20;99.90
25568;DHT22;13455;51.480;7.594;2023-01-31T13:15:05;6.20;99.90
25568;DHT22;13455;51.480;7.594;2023-01-31T13:17:38;6.30;99.90
25568;DHT22;13455;51.480;7.594;2023-01-31T13:22:58;6.30;99.90
25568;DHT22;13455;51.480;7.594;2023-01-31T13:28:14;6.30;99.90
25568;DHT22;13455;51.480;7.594;2023-01-31T13:30:50;6.30;99.90
25568;DHT22;13455;51.480;7.594;2023-01-31T13:35:44;6.30;99.90
25568;DHT22;13455;51.480;7.594;2023-01-31T13:38:16;6.30;99.90
25568;DHT22;13455;51.480;7.594;2023-01-31T13:40:48;6.30;99.90
25568;DHT22;13455;51.480;7.594;2023-01-31T13:43:16;6.30;99.90
25568;DHT22;13455;51.480;7.594;2023-01-31T13:45:45;6.30;99.90
25568;DHT22;13455;51.480;7.594;2023-01-31T13:51:24;6.40;99.90
25568;DHT22;13455;51.480;7.594;2023-01-31T13:54:24;6.30;99.90
25568;DHT22;13455;51.480;7.594;2023-01-31T13:56:55;6.30;99.90
25568;DHT22;13455;51.480;7.594;2023-01-31T13:59:24;6.40;99.90
25568;DHT22;13455;51.480;7.594;2023-01-31T14:01:53;6.40;99.90
25568;DHT22;13455;51.480;7.594;2023-01-31T14:04:22;6.40;99.90
25568;DHT22;13455;51.480;7.594;2023-01-31T14:14:43;6.40;99.90
25568;DHT22;13455;51.480;7.594;2023-01-31T14:17:55;6.40;99.90
25568;DHT22;13455;51.480;7.594;2023-01-31T14:55:21;6.40;99.90
25568;DHT22;13455;51.480;7.594;2023-01-31T14:57:54;6.50;99.90
25568;DHT22;13455;51.480;7.594;2023-01-31T15:00:35;6.50;99.90
25568;DHT22;13455;51.480;7.594;2023-01-31T15:08:46;7.00;99.90
25568;DHT22;13455;51.480;7.594;2023-01-31T15:19:04;6.50;99.90
25568;DHT22;13455;51.480;7.594;2023-01-31T15:21:36;6.50;99.90
25568;DHT22;13455;51.480;7.594;2023-01-31T15:43:53;6.60;99.90
25568;DHT22;13455;51.480;7.594;2023-01-31T15:51:14;6.60;99.90
25568;DHT22;13455;51.480;7.594;2023-01-31T19:58:15;7.10;99.90
25568;DHT22;13455;51.480;7.594;2023-01-31T20:00:41;7.10;99.90
25568;DHT22;13455;51.480;7.594;2023-01-31T20:03:07;6.90;99.90
25568;DHT22;13455;51.480;7.594;2023-01-31T20:05:32;6.80;99.90
25568;DHT22;13455;51.480;7.594;2023-01-31T20:07:58;6.60;99.90
25568;DHT22;13455;51.480;7.594;2023-01-31T20:10:24;6.90;99.90
25568;DHT22;13455;51.480;7.594;2023-01-31T20:12:49;6.60;99.90
25568;DHT22;13455;51.480;7.594;2023-01-31T20:15:15;6.80;99.90
25568;DHT22;13455;51.480;7.594;2023-01-31T20:17:41;7.00;99.90
25568;DHT22;13455;51.480;7.594;2023-01-31T20:20:07;6.60;99.90
25568;DHT22;13455;51.480;7.594;2023-01-31T20:22:33;6.50;99.90
25568;DHT22;13455;51.480;7.594;2023-01-31T20:25:02;6.50;99.90
25568;DHT22;13455;51.480;7.594;2023-01-31T20:27:27;6.70;99.90
25568;DHT22;13455;51.480;7.594;2023-01-31T20:29:58;6.50;99.90
25568;DHT22;13455;51.480;7.594;2023-01-31T20:32:23;6.50;99.90
25568;DHT22;13455;51.480;7.594;2023-01-31T20:34:49;6.20;99.90
25568;DHT22;13455;51.480;7.594;2023-01-31T20:37:15;6.30;99.90
25568;DHT22;13455;51.480;7.594;2023-01-31T20:39:41;6.90;99.90
25568;DHT22;13455;51.480;7.594;2023-01-31T20:42:06;6.60;99.90
25568;DHT22;13455;51.480;7.594;2023-01-31T20:44:32;6.30;99.90
25568;DHT22;13455;51.480;7.594;2023-01-31T20:46:58;6.50;99.90
25568;DHT22;13455;51.480;7.594;2023-01-31T20:49:23;6.20;99.90
25568;DHT22;13455;51.480;7.594;2023-01-31T20:51:49;6.00;99.90
25568;DHT22;13455;51.480;7.594;2023-01-31T20:54:15;6.30;99.90
25568;DHT22;13455;51.480;7.594;2023-01-31T20:56:41;6.00;99.90
25568;DHT22;13455;51.480;7.594;2023-01-31T20:59:06;5.80;99.90
25568;DHT22;13455;51.480;7.594;2023-01-31T21:03:58;5.90;99.90
25568;DHT22;13455;51.480;7.594;2023-01-31T21:06:23;6.00;99.90
25568;DHT22;13455;51.480;7.594;2023-01-31T21:08:49;5.80;99.90
25568;DHT22;13455;51.480;7.594;2023-01-31T21:11:14;5.70;99.90
25568;DHT22;13455;51.480;7.594;2023-01-31T21:13:40;6.10;99.90
25568;DHT22;13455;51.480;7.594;2023-01-31T21:16:09;5.70;99.90
25568;DHT22;13455;51.480;7.594;2023-01-31T21:18:37;5.70;99.90
25568;DHT22;13455;51.480;7.594;2023-01-31T21:21:04;5.80;99.90
25568;DHT22;13455;51.480;7.594;2023-01-31T21:23:32;5.80;99.90
25568;DHT22;13455;51.480;7.594;2023-01-31T21:26:00;5.70;99.90
25568;DHT22;13455;51.480;7.594;2023-01-31T21:28:26;5.60;99.90
25568;DHT22;13455;51.480;7.594;2023-01-31T21:30:59;5.70;99.90
25568;DHT22;13455;51.480;7.594;2023-01-31T21:33:26;5.60;99.90
25568;DHT22;13455;51.480;7.594;2023-01-31T21:35:53;5.80;99.90
25568;DHT22;13455;51.480;7.594;2023-01-31T21:38:19;6.10;99.90
25568;DHT22;13455;51.480;7.594;2023-01-31T21:40:44;5.80;99.90
25568;DHT22;13455;51.480;7.594;2023-01-31T21:43:10;5.80;99.90
25568;DHT22;13455;51.480;7.594;2023-01-31T21:45:36;5.50;99.90
25568;DHT22;13455;51.480;7.594;2023-01-31T21:48:09;5.70;99.90
25568;DHT22;13455;51.480;7.594;2023-01-31T21:50:54;5.40;99.90
25568;DHT22;13455;51.480;7.594;2023-01-31T21:53:20;5.60;99.90
25568;DHT22;13455;51.480;7.594;2023-01-31T21:55:46;5.50;99.90
25568;DHT22;13455;51.480;7.594;2023-01-31T21:58:12;5.60;99.90
25568;DHT22;13455;51.480;7.594;2023-01-31T22:00:37;5.70;99.90
25568;DHT22;13455;51.480;7.594;2023-01-31T22:03:03;5.70;99.90
25568;DHT22;13455;51.480;7.594;2023-01-31T22:05:30;5.60;99.90
25568;DHT22;13455;51.480;7.594;2023-01-31T22:07:56;5.60;99.90
25568;DHT22;13455;51.480;7.594;2023-01-31T22:10:21;5.60;99.90
25568;DHT22;13455;51.480;7.594;2023-01-31T22:12:47;5.70;99.90
25568;DHT22;13455;51.480;7.594;2023-01-31T22:15:12;6.10;99.90
25568;DHT22;13455;51.480;7.594;2023-01-31T22:17:38;5.50;99.90
25568;DHT22;13455;51.480;7.594;2023-01-31T22:20:04;5.50;99.90
25568;DHT22;13455;51.480;7.594;2023-01-31T22:22:30;5.60;99.90
25568;DHT22;13455;51.480;7.594;2023-01-31T22:24:56;5.50;99.90
25568;DHT22;13455;51.480;7.594;2023-01-31T22:27:21;5.90;99.90
25568;DHT22;13455;51.480;7.594;2023-01-31T22:29:47;5.80;99.90
25568;DHT22;13455;51.480;7.594;2023-01-31T22:32:12;5.50;99.90
25568;DHT22;13455;51.480;7.594;2023-01-31T22:34:38;5.60;99.90
25568;DHT22;13455;51.480;7.594;2023-01-31T22:37:04;5.90;99.90
25568;DHT22;13455;51.480;7.594;2023-01-31T22:41:55;5.40;99.90
25568;DHT22;13455;51.480;7.594;2023-01-31T22:44:21;5.40;99.90
25568;DHT22;13455;51.480;7.594;2023-01-31T22:46:47;5.30;99.90
25568;DHT22;13455;51.480;7.594;2023-01-31T22:49:12;5.30;99.90
25568;DHT22;13455;51.480;7.594;2023-01-31T22:51:38;5.30;99.90
25568;DHT22;13455;51.480;7.594;2023-01-31T22:54:03;5.30;99.90
25568;DHT22;13455;51.480;7.594;2023-01-31T22:56:30;5.30;99.90
25568;DHT22;13455;51.480;7.594;2023-01-31T22:59:00;5.20;99.90
25568;DHT22;13455;51.480;7.594;2023-01-31T23:01:33;5.30;99.90
25568;DHT22;13455;51.480;7.594;2023-01-31T23:04:01;5.30;99.90
25568;DHT22;13455;51.480;7.594;2023-01-31T23:06:27;5.30;99.90
25568;DHT22;13455;51.480;7.594;2023-01-31T23:08:53;5.30;99.90
25568;DHT22;13455;51.480;7.594;2023-01-31T23:11:20;5.50;99.90
25568;DHT22;13455;51.480;7.594;2023-01-31T23:16:17;5.30;99.90
25568;DHT22;13455;51.480;7.594;2023-01-31T23:18:43;5.40;99.90
25568;DHT22;13455;51.480;7.594;2023-01-31T23:23:34;5.30;99.90
25568;DHT22;13455;51.480;7.594;2023-01-31T23:26:00;5.30;99.90
25568;DHT22;13455;51.480;7.594;2023-01-31T23:28:26;5.30;99.90
25568;DHT22;13455;51.480;7.594;2023-01-31T23:30:52;5.30;99.90
25568;DHT22;13455;51.480;7.594;2023-01-31T23:33:17;5.40;99.90
25568;DHT22;13455;51.480;7.594;2023-01-31T23:35:43;5.20;99.90
25568;DHT22;13455;51.480;7.594;2023-01-31T23:38:09;5.40;99.90
25568;DHT22;13455;51.480;7.594;2023-01-31T23:40:35;5.20;99.90
25568;DHT22;13455;51.480;7.594;2023-01-31T23:43:00;5.40;99.90
25568;DHT22;13455;51.480;7.594;2023-01-31T23:45:27;5.30;99.90
25568;DHT22;13455;51.480;7.594;2023-01-31T23:47:53;5.30;99.90
25568;DHT22;13455;51.480;7.594;2023-01-31T23:50:18;5.40;99.90
25568;DHT22;13455;51.480;7.594;2023-01-31T23:52:44;5.30;99.90
25568;DHT22;13455;51.480;7.594;2023-01-31T23:55:10;5.30;99.90
